createdAt,value
2018-04-26T00:00:11.315Z,15.01
2018-04-26T00:01:11.306Z,14.91
2018-04-26T00:02:11.300Z,14.95
2018-04-26T00:03:11.298Z,15.12
2018-04-26T00:04:11.288Z,15.07
2018-04-26T00:05:11.278Z,15.12
2018-04-26T00:06:11.271Z,15.03
2018-04-26T00:07:11.264Z,15.03
2018-04-26T00:08:11.261Z,15.03
2018-04-26T00:09:11.251Z,15.00
2018-04-26T00:10:11.244Z,15.15
2018-04-26T00:11:11.235Z,15.15
2018-04-26T00:12:11.228Z,15.16
2018-04-26T00:13:11.220Z,15.01
2018-04-26T00:14:11.214Z,15.11
2018-04-26T00:15:11.204Z,15.12
2018-04-26T00:16:11.200Z,15.15
2018-04-26T00:17:11.189Z,15.27
2018-04-26T00:18:11.189Z,15.19
2018-04-26T00:19:11.176Z,15.18
2018-04-26T00:20:11.170Z,15.15
2018-04-26T00:21:11.163Z,15.18
2018-04-26T00:22:11.156Z,15.18
2018-04-26T00:23:11.148Z,15.28
2018-04-26T00:24:11.140Z,15.18
2018-04-26T00:25:11.132Z,15.19
2018-04-26T00:26:11.129Z,15.18
2018-04-26T00:27:11.118Z,15.27
2018-04-26T00:28:11.115Z,15.27
2018-04-26T00:29:11.104Z,15.25
2018-04-26T00:30:11.098Z,15.20
2018-04-26T00:31:11.090Z,15.18
2018-04-26T00:32:11.081Z,15.13
2018-04-26T00:33:11.075Z,15.16
2018-04-26T00:34:11.065Z,15.12
2018-04-26T00:35:11.059Z,15.05
2018-04-26T00:36:11.055Z,15.11
2018-04-26T00:37:11.048Z,15.13
2018-04-26T00:38:11.038Z,15.13
2018-04-26T00:39:11.028Z,15.22
2018-04-26T00:40:11.024Z,15.22
2018-04-26T00:41:11.043Z,15.19
2018-04-26T00:42:11.010Z,15.31
2018-04-26T00:43:11.000Z,15.20
2018-04-26T00:44:10.993Z,15.37
2018-04-26T00:45:10.985Z,15.49
2018-04-26T00:46:10.979Z,15.44
2018-04-26T00:47:10.971Z,15.48
2018-04-26T00:48:10.966Z,15.41
2018-04-26T00:49:10.957Z,15.43
2018-04-26T00:50:10.949Z,15.37
2018-04-26T00:51:10.944Z,15.44
2018-04-26T00:52:10.933Z,15.38
2018-04-26T00:53:10.932Z,15.37
2018-04-26T00:54:10.922Z,15.40
2018-04-26T00:55:10.914Z,15.48
2018-04-26T00:56:10.906Z,15.52
2018-04-26T00:57:10.901Z,15.56
2018-04-26T00:58:10.893Z,15.49
2018-04-26T00:59:10.943Z,15.53
2018-04-26T01:00:10.885Z,15.46
2018-04-26T01:01:10.871Z,15.55
2018-04-26T01:02:10.864Z,15.55
2018-04-26T01:03:10.859Z,15.62
2018-04-26T01:04:10.851Z,15.43
2018-04-26T01:05:10.843Z,15.46
2018-04-26T01:06:10.835Z,15.37
2018-04-26T01:07:10.827Z,15.40
2018-04-26T01:08:10.821Z,15.38
2018-04-26T01:09:10.814Z,15.37
2018-04-26T01:10:10.807Z,15.35
2018-04-26T01:11:10.798Z,15.48
2018-04-26T01:12:10.792Z,15.56
2018-04-26T01:13:10.787Z,15.43
2018-04-26T01:14:10.781Z,15.59
2018-04-26T01:15:10.770Z,15.53
2018-04-26T01:16:10.764Z,15.60
2018-04-26T01:17:10.755Z,15.59
2018-04-26T01:18:10.749Z,15.59
2018-04-26T01:19:10.742Z,15.58
2018-04-26T01:20:10.829Z,15.64
2018-04-26T01:21:10.725Z,15.58
2018-04-26T01:22:10.720Z,15.60
2018-04-26T01:23:10.716Z,15.60
2018-04-26T01:24:10.704Z,15.66
2018-04-26T01:25:10.705Z,15.64
2018-04-26T01:26:10.691Z,15.64
2018-04-26T01:27:10.684Z,15.55
2018-04-26T01:28:10.679Z,15.58
2018-04-26T01:29:10.671Z,15.60
2018-04-26T01:30:10.662Z,15.62
2018-04-26T01:31:10.658Z,15.58
2018-04-26T01:32:10.648Z,15.58
2018-04-26T01:33:10.643Z,15.60
2018-04-26T01:34:10.634Z,15.52
2018-04-26T01:35:10.635Z,15.62
2018-04-26T01:36:10.620Z,15.58
2018-04-26T01:37:10.613Z,15.59
2018-04-26T01:38:10.606Z,15.52
2018-04-26T01:39:10.599Z,15.52
2018-04-26T01:40:10.591Z,15.55
2018-04-26T01:41:10.585Z,15.55
2018-04-26T01:42:10.579Z,15.64
2018-04-26T01:43:10.574Z,15.67
2018-04-26T01:44:10.562Z,15.59
2018-04-26T01:45:10.556Z,15.70
2018-04-26T01:46:10.550Z,15.60
2018-04-26T01:47:10.543Z,15.66
2018-04-26T01:48:10.536Z,15.71
2018-04-26T01:49:10.528Z,15.70
2018-04-26T01:50:10.523Z,15.70
2018-04-26T01:51:10.516Z,15.76
2018-04-26T01:52:10.507Z,15.77
2018-04-26T01:53:10.501Z,15.78
2018-04-26T01:54:10.493Z,15.81
2018-04-26T01:55:10.489Z,15.84
2018-04-26T01:56:10.481Z,15.81
2018-04-26T01:57:10.473Z,15.81
2018-04-26T01:58:10.465Z,15.80
2018-04-26T01:59:10.458Z,15.88
2018-04-26T02:00:10.452Z,15.84
2018-04-26T02:01:10.444Z,15.98
2018-04-26T02:02:10.444Z,15.98
2018-04-26T02:03:10.431Z,15.95
2018-04-26T02:04:10.423Z,15.96
2018-04-26T02:05:10.416Z,15.96
2018-04-26T02:06:10.412Z,16.10
2018-04-26T02:07:10.404Z,16.08
2018-04-26T02:08:10.400Z,16.27
2018-04-26T02:09:10.389Z,16.27
2018-04-26T02:10:10.385Z,16.40
2018-04-26T02:11:10.378Z,16.25
2018-04-26T02:12:10.372Z,16.23
2018-04-26T02:13:10.364Z,16.18
2018-04-26T02:14:10.384Z,16.25
2018-04-26T02:15:10.350Z,16.25
2018-04-26T02:16:10.341Z,16.18
2018-04-26T02:17:10.332Z,16.23
2018-04-26T02:18:10.327Z,16.27
2018-04-26T02:19:10.318Z,16.29
2018-04-26T02:20:10.313Z,16.27
2018-04-26T02:21:10.305Z,16.23
2018-04-26T02:22:10.296Z,16.23
2018-04-26T02:23:10.291Z,16.16
2018-04-26T02:24:10.288Z,16.08
2018-04-26T02:25:10.277Z,16.03
2018-04-26T02:26:10.273Z,15.99
2018-04-26T02:27:10.262Z,16.18
2018-04-26T02:28:10.255Z,15.95
2018-04-26T02:29:10.249Z,15.99
2018-04-26T02:30:10.241Z,15.98
2018-04-26T02:31:10.234Z,15.98
2018-04-26T02:32:10.225Z,15.89
2018-04-26T02:33:10.217Z,15.89
2018-04-26T02:34:10.210Z,15.88
2018-04-26T02:35:10.203Z,15.89
2018-04-26T02:36:10.195Z,15.81
2018-04-26T02:37:10.186Z,15.77
2018-04-26T02:38:10.179Z,15.74
2018-04-26T02:39:10.185Z,15.71
2018-04-26T02:40:10.168Z,15.73
2018-04-26T02:41:10.157Z,15.76
2018-04-26T02:42:10.148Z,15.71
2018-04-26T02:43:10.143Z,15.67
2018-04-26T02:44:10.134Z,15.74
2018-04-26T02:45:10.124Z,15.64
2018-04-26T02:46:10.120Z,15.62
2018-04-26T02:47:10.117Z,15.53
2018-04-26T02:48:10.105Z,15.59
2018-04-26T02:49:10.094Z,15.49
2018-04-26T02:50:10.091Z,15.48
2018-04-26T02:51:10.083Z,15.40
2018-04-26T02:52:10.073Z,15.46
2018-04-26T02:53:10.065Z,15.44
2018-04-26T02:54:10.057Z,15.37
2018-04-26T02:55:10.049Z,15.37
2018-04-26T02:56:10.041Z,15.33
2018-04-26T02:57:10.036Z,15.35
2018-04-26T02:58:10.030Z,15.34
2018-04-26T02:59:10.018Z,15.20
2018-04-26T03:00:10.012Z,15.20
2018-04-26T03:01:10.003Z,15.18
2018-04-26T03:02:09.996Z,15.30
2018-04-26T03:03:09.987Z,15.35
2018-04-26T03:04:09.980Z,15.37
2018-04-26T03:05:09.974Z,15.30
2018-04-26T03:06:09.965Z,15.18
2018-04-26T03:07:09.963Z,15.18
2018-04-26T03:08:10.039Z,15.16
2018-04-26T03:09:09.941Z,15.05
2018-04-26T03:10:09.934Z,15.12
2018-04-26T03:11:09.933Z,15.04
2018-04-26T03:12:09.920Z,14.98
2018-04-26T03:13:09.910Z,15.03
2018-04-26T03:14:09.906Z,14.95
2018-04-26T03:15:09.899Z,14.90
2018-04-26T03:16:09.887Z,14.94
2018-04-26T03:17:09.877Z,14.90
2018-04-26T03:18:09.874Z,14.91
2018-04-26T03:19:09.868Z,14.75
2018-04-26T03:20:09.854Z,14.82
2018-04-26T03:21:09.849Z,14.90
2018-04-26T03:22:09.841Z,14.80
2018-04-26T03:23:09.834Z,14.95
2018-04-26T03:24:09.827Z,14.86
2018-04-26T03:25:09.819Z,14.87
2018-04-26T03:26:09.809Z,14.85
2018-04-26T03:27:09.801Z,14.90
2018-04-26T03:28:09.794Z,14.87
2018-04-26T03:29:09.785Z,15.05
2018-04-26T03:30:09.782Z,15.01
2018-04-26T03:31:09.885Z,15.01
2018-04-26T03:32:09.762Z,14.78
2018-04-26T03:33:09.754Z,14.75
2018-04-26T03:34:09.746Z,14.72
2018-04-26T03:35:09.738Z,14.79
2018-04-26T03:36:09.730Z,14.74
2018-04-26T03:37:09.725Z,14.61
2018-04-26T03:38:09.716Z,14.57
2018-04-26T03:39:09.705Z,14.63
2018-04-26T03:40:09.697Z,14.71
2018-04-26T03:41:09.689Z,14.57
2018-04-26T03:42:09.681Z,14.56
2018-04-26T03:43:09.675Z,14.53
2018-04-26T03:44:09.663Z,14.46
2018-04-26T03:45:09.655Z,14.53
2018-04-26T03:46:09.649Z,14.57
2018-04-26T03:47:09.642Z,14.42
2018-04-26T03:48:09.631Z,14.35
2018-04-26T03:49:09.626Z,14.44
2018-04-26T03:50:09.615Z,14.31
2018-04-26T03:51:09.612Z,14.36
2018-04-26T03:52:09.599Z,14.35
2018-04-26T03:53:09.589Z,14.34
2018-04-26T03:54:09.583Z,14.45
2018-04-26T03:55:09.574Z,14.52
2018-04-26T03:56:09.566Z,14.49
2018-04-26T03:57:09.558Z,14.61
2018-04-26T03:58:09.554Z,14.44
2018-04-26T03:59:09.544Z,14.60
2018-04-26T04:00:09.534Z,14.52
2018-04-26T04:01:09.525Z,14.60
2018-04-26T04:02:09.517Z,14.54
2018-04-26T04:03:09.506Z,14.48
2018-04-26T04:04:09.498Z,14.53
2018-04-26T04:05:09.491Z,14.49
2018-04-26T04:06:09.483Z,14.61
2018-04-26T04:07:09.475Z,14.60
2018-04-26T04:08:09.467Z,14.61
2018-04-26T04:09:09.456Z,14.57
2018-04-26T04:10:09.450Z,14.61
2018-04-26T04:11:09.440Z,14.69
2018-04-26T04:12:09.432Z,14.69
2018-04-26T04:13:09.422Z,14.60
2018-04-26T04:14:09.413Z,14.80
2018-04-26T04:15:09.405Z,14.79
2018-04-26T04:16:09.399Z,14.78
2018-04-26T04:17:09.386Z,14.71
2018-04-26T04:18:09.381Z,14.64
2018-04-26T04:19:09.370Z,14.59
2018-04-26T04:20:09.361Z,14.57
2018-04-26T04:21:09.353Z,14.60
2018-04-26T04:22:09.346Z,14.48
2018-04-26T04:23:09.335Z,14.46
2018-04-26T04:24:09.325Z,14.44
2018-04-26T04:25:09.318Z,14.39
2018-04-26T04:26:09.306Z,14.44
2018-04-26T04:27:09.301Z,14.42
2018-04-26T04:28:09.293Z,14.53
2018-04-26T04:29:09.287Z,14.56
2018-04-26T04:30:09.275Z,14.57
2018-04-26T04:31:09.266Z,14.75
2018-04-26T04:32:09.256Z,14.74
2018-04-26T04:33:09.251Z,14.63
2018-04-26T04:34:09.246Z,14.74
2018-04-26T04:35:09.232Z,14.63
2018-04-26T04:36:09.225Z,14.64
2018-04-26T04:37:09.215Z,14.57
2018-04-26T04:38:09.205Z,14.57
2018-04-26T04:39:09.202Z,14.61
2018-04-26T04:40:09.189Z,14.59
2018-04-26T04:41:09.180Z,14.57
2018-04-26T04:42:09.176Z,14.61
2018-04-26T04:43:09.162Z,14.53
2018-04-26T04:44:09.168Z,14.54
2018-04-26T04:45:09.260Z,14.52
2018-04-26T04:46:09.139Z,14.27
2018-04-26T04:47:09.129Z,14.20
2018-04-26T04:48:09.119Z,14.16
2018-04-26T04:49:09.114Z,14.16
2018-04-26T04:50:09.103Z,14.19
2018-04-26T04:51:09.171Z,14.38
2018-04-26T04:52:09.087Z,14.48
2018-04-26T04:53:09.076Z,14.39
2018-04-26T04:54:09.067Z,14.41
2018-04-26T04:55:09.059Z,14.39
2018-04-26T04:56:09.050Z,14.26
2018-04-26T04:57:09.041Z,14.42
2018-04-26T04:58:09.033Z,14.42
2018-04-26T04:59:09.027Z,14.13
2018-04-26T05:00:09.019Z,13.96
2018-04-26T05:01:09.005Z,13.98
2018-04-26T05:02:09.076Z,13.99
2018-04-26T05:03:08.996Z,13.99
2018-04-26T05:04:08.980Z,13.93
2018-04-26T05:05:08.970Z,13.93
2018-04-26T05:06:08.962Z,13.99
2018-04-26T05:07:08.953Z,14.01
2018-04-26T05:08:08.947Z,14.17
2018-04-26T05:09:08.934Z,14.13
2018-04-26T05:10:08.928Z,14.16
2018-04-26T05:11:08.920Z,14.19
2018-04-26T05:12:08.914Z,14.16
2018-04-26T05:13:08.901Z,14.06
2018-04-26T05:14:08.891Z,14.05
2018-04-26T05:15:08.884Z,13.99
2018-04-26T05:16:08.876Z,13.94
2018-04-26T05:17:08.868Z,13.87
2018-04-26T05:18:08.855Z,13.81
2018-04-26T05:19:08.849Z,13.96
2018-04-26T05:20:08.839Z,13.96
2018-04-26T05:21:08.830Z,13.94
2018-04-26T05:22:08.819Z,13.90
2018-04-26T05:23:08.812Z,13.99
2018-04-26T05:24:08.801Z,14.08
2018-04-26T05:25:08.794Z,14.16
2018-04-26T05:26:08.782Z,14.26
2018-04-26T05:27:08.774Z,14.20
2018-04-26T05:28:08.765Z,14.44
2018-04-26T05:29:08.756Z,14.48
2018-04-26T05:30:08.813Z,14.59
2018-04-26T05:31:08.738Z,14.54
2018-04-26T05:32:08.728Z,14.54
2018-04-26T05:33:08.721Z,14.59
2018-04-26T05:34:08.712Z,14.60
2018-04-26T05:35:08.705Z,14.75
2018-04-26T05:36:08.697Z,14.72
2018-04-26T05:37:08.689Z,14.80
2018-04-26T05:38:08.675Z,14.80
2018-04-26T05:39:08.669Z,14.59
2018-04-26T05:40:08.663Z,14.45
2018-04-26T05:41:08.653Z,14.46
2018-04-26T05:42:08.646Z,14.60
2018-04-26T05:43:08.636Z,14.61
2018-04-26T05:44:08.624Z,14.64
2018-04-26T05:45:08.621Z,14.66
2018-04-26T05:46:08.607Z,14.61
2018-04-26T05:47:08.600Z,14.60
2018-04-26T05:48:08.593Z,14.56
2018-04-26T05:49:08.581Z,14.61
2018-04-26T05:50:08.572Z,14.59
2018-04-26T05:51:08.565Z,14.61
2018-04-26T05:52:08.558Z,14.71
2018-04-26T05:53:08.547Z,14.75
2018-04-26T05:54:08.543Z,14.75
2018-04-26T05:55:08.536Z,14.80
2018-04-26T05:56:08.527Z,14.87
2018-04-26T05:57:08.513Z,14.95
2018-04-26T05:58:08.505Z,15.09
2018-04-26T05:59:08.498Z,15.04
2018-04-26T06:00:08.489Z,15.04
2018-04-26T06:01:08.479Z,14.98
2018-04-26T06:02:08.472Z,14.85
2018-04-26T06:03:08.466Z,14.97
2018-04-26T06:04:08.456Z,14.80
2018-04-26T06:05:08.448Z,14.95
2018-04-26T06:06:08.441Z,14.90
2018-04-26T06:07:08.429Z,14.94
2018-04-26T06:08:08.429Z,14.83
2018-04-26T06:09:08.412Z,14.93
2018-04-26T06:10:08.405Z,14.69
2018-04-26T06:11:08.394Z,14.80
2018-04-26T06:12:08.389Z,14.82
2018-04-26T06:13:08.381Z,14.72
2018-04-26T06:14:08.372Z,14.74
2018-04-26T06:15:08.365Z,14.91
2018-04-26T06:16:08.355Z,14.97
2018-04-26T06:17:08.371Z,15.05
2018-04-26T06:18:08.338Z,15.12
2018-04-26T06:19:08.330Z,15.22
2018-04-26T06:20:08.322Z,15.23
2018-04-26T06:21:08.317Z,15.20
2018-04-26T06:22:08.313Z,15.18
2018-04-26T06:23:08.309Z,15.28
2018-04-26T06:24:08.293Z,15.31
2018-04-26T06:25:08.325Z,15.51
2018-04-26T06:26:08.275Z,15.44
2018-04-26T06:27:08.268Z,15.46
2018-04-26T06:28:08.257Z,15.58
2018-04-26T06:29:08.252Z,15.51
2018-04-26T06:30:08.245Z,15.46
2018-04-26T06:31:08.260Z,15.38
2018-04-26T06:32:08.228Z,15.44
2018-04-26T06:33:08.222Z,15.37
2018-04-26T06:34:08.211Z,15.43
2018-04-26T06:35:08.203Z,15.55
2018-04-26T06:36:08.195Z,15.62
2018-04-26T06:37:08.187Z,15.58
2018-04-26T06:38:08.179Z,15.59
2018-04-26T06:39:08.174Z,15.56
2018-04-26T06:40:08.164Z,15.67
2018-04-26T06:41:08.155Z,15.77
2018-04-26T06:42:08.149Z,15.78
2018-04-26T06:43:08.142Z,15.67
2018-04-26T06:44:08.132Z,15.66
2018-04-26T06:45:08.124Z,15.66
2018-04-26T06:46:08.120Z,15.62
2018-04-26T06:47:08.111Z,15.73
2018-04-26T06:48:08.102Z,15.73
2018-04-26T06:49:08.093Z,15.74
2018-04-26T06:50:08.090Z,15.81
2018-04-26T06:51:08.081Z,15.88
2018-04-26T06:52:08.072Z,15.71
2018-04-26T06:53:08.065Z,15.56
2018-04-26T06:54:08.058Z,15.58
2018-04-26T06:55:08.058Z,15.38
2018-04-26T06:56:08.045Z,15.44
2018-04-26T06:57:08.043Z,15.55
2018-04-26T06:58:08.030Z,15.62
2018-04-26T06:59:08.021Z,15.70
2018-04-26T07:00:08.010Z,15.67
2018-04-26T07:01:08.004Z,15.73
2018-04-26T07:02:07.998Z,15.89
2018-04-26T07:03:07.990Z,15.91
2018-04-26T07:04:07.983Z,15.99
2018-04-26T07:05:07.976Z,15.80
2018-04-26T07:06:07.967Z,15.68
2018-04-26T07:07:07.963Z,15.71
2018-04-26T07:08:07.952Z,15.84
2018-04-26T07:09:07.947Z,15.81
2018-04-26T07:10:07.939Z,15.93
2018-04-26T07:11:07.932Z,15.66
2018-04-26T07:12:07.989Z,15.68
2018-04-26T07:13:07.915Z,15.67
2018-04-26T07:14:07.908Z,15.70
2018-04-26T07:15:07.903Z,15.68
2018-04-26T07:16:07.892Z,15.68
2018-04-26T07:17:07.883Z,15.67
2018-04-26T07:18:07.882Z,15.81
2018-04-26T07:19:07.877Z,15.91
2018-04-26T07:20:07.863Z,15.91
2018-04-26T07:21:07.858Z,15.95
2018-04-26T07:22:07.848Z,16.03
2018-04-26T07:23:07.844Z,15.98
2018-04-26T07:24:07.832Z,15.96
2018-04-26T07:25:07.831Z,16.08
2018-04-26T07:26:07.823Z,16.23
2018-04-26T07:27:07.812Z,16.30
2018-04-26T07:28:07.802Z,16.26
2018-04-26T07:29:07.799Z,16.40
2018-04-26T07:30:07.791Z,16.44
2018-04-26T07:31:07.787Z,16.37
2018-04-26T07:32:07.828Z,16.42
2018-04-26T07:33:07.768Z,16.44
2018-04-26T07:34:07.763Z,16.37
2018-04-26T07:35:07.763Z,16.40
2018-04-26T07:36:07.749Z,16.42
2018-04-26T07:37:07.744Z,16.18
2018-04-26T07:38:07.737Z,16.33
2018-04-26T07:39:07.730Z,16.34
2018-04-26T07:40:07.723Z,16.37
2018-04-26T07:41:07.714Z,16.45
2018-04-26T07:42:07.705Z,16.51
2018-04-26T07:43:07.700Z,16.55
2018-04-26T07:44:07.692Z,16.57
2018-04-26T07:45:07.685Z,16.62
2018-04-26T07:46:07.681Z,16.77
2018-04-26T07:47:07.674Z,16.55
2018-04-26T07:48:07.663Z,16.44
2018-04-26T07:49:07.661Z,16.32
2018-04-26T07:50:07.658Z,16.08
2018-04-26T07:51:07.644Z,16.30
2018-04-26T07:52:07.639Z,16.45
2018-04-26T07:53:07.665Z,16.34
2018-04-26T07:54:07.622Z,16.36
2018-04-26T07:55:07.622Z,16.36
2018-04-26T07:56:07.608Z,16.41
2018-04-26T07:57:07.602Z,16.47
2018-04-26T07:58:07.597Z,16.44
2018-04-26T07:59:07.593Z,16.47
2018-04-26T08:00:07.580Z,16.37
2018-04-26T08:01:07.575Z,16.30
2018-04-26T08:02:07.568Z,16.36
2018-04-26T08:03:07.563Z,16.30
2018-04-26T08:04:07.564Z,16.03
2018-04-26T08:05:07.547Z,15.81
2018-04-26T08:06:07.540Z,15.81
2018-04-26T08:07:07.534Z,15.59
2018-04-26T08:08:07.527Z,15.62
2018-04-26T08:09:07.521Z,15.34
2018-04-26T08:10:07.514Z,14.98
2018-04-26T08:11:07.504Z,15.04
2018-04-26T08:12:07.497Z,14.93
2018-04-26T08:13:07.490Z,14.93
2018-04-26T08:14:07.484Z,15.01
2018-04-26T08:15:07.480Z,14.95
2018-04-26T08:16:07.673Z,14.78
2018-04-26T08:17:07.459Z,14.82
2018-04-26T08:18:07.453Z,14.82
2018-04-26T08:19:07.446Z,14.83
2018-04-26T08:20:07.439Z,14.91
2018-04-26T08:21:07.429Z,15.12
2018-04-26T08:22:07.423Z,15.19
2018-04-26T08:23:07.414Z,15.30
2018-04-26T08:24:07.409Z,15.34
2018-04-26T08:25:07.477Z,15.16
2018-04-26T08:26:07.391Z,15.33
2018-04-26T08:27:07.385Z,15.35
2018-04-26T08:28:07.375Z,15.38
2018-04-26T08:29:07.374Z,15.33
2018-04-26T08:30:07.362Z,15.44
2018-04-26T08:31:07.356Z,15.59
2018-04-26T08:32:07.345Z,15.59
2018-04-26T08:33:07.338Z,15.64
2018-04-26T08:34:07.328Z,15.71
2018-04-26T08:35:07.324Z,15.67
2018-04-26T08:36:07.315Z,15.52
2018-04-26T08:37:07.308Z,15.71
2018-04-26T08:38:07.300Z,15.74
2018-04-26T08:39:07.296Z,15.73
2018-04-26T08:40:07.289Z,15.56
2018-04-26T08:41:07.276Z,15.67
2018-04-26T08:42:07.271Z,15.74
2018-04-26T08:43:07.263Z,15.74
2018-04-26T08:44:07.265Z,15.74
2018-04-26T08:45:07.246Z,15.76
2018-04-26T08:46:07.239Z,15.88
2018-04-26T08:47:07.233Z,15.99
2018-04-26T08:48:07.225Z,16.07
2018-04-26T08:49:07.221Z,16.18
2018-04-26T08:50:07.210Z,16.22
2018-04-26T08:51:07.202Z,16.27
2018-04-26T08:52:07.198Z,16.27
2018-04-26T08:53:07.188Z,15.92
2018-04-26T08:54:07.181Z,16.01
2018-04-26T08:55:07.177Z,15.86
2018-04-26T08:56:07.168Z,15.89
2018-04-26T08:57:07.159Z,15.76
2018-04-26T08:58:07.154Z,15.84
2018-04-26T08:59:07.149Z,15.77
2018-04-26T09:00:07.137Z,15.81
2018-04-26T09:01:07.130Z,15.88
2018-04-26T09:02:07.123Z,15.99
2018-04-26T09:03:07.117Z,16.16
2018-04-26T09:04:07.109Z,15.96
2018-04-26T09:05:07.103Z,16.04
2018-04-26T09:06:07.094Z,16.17
2018-04-26T09:07:07.091Z,16.16
2018-04-26T09:08:07.080Z,16.27
2018-04-26T09:09:07.078Z,16.26
2018-04-26T09:10:07.065Z,16.37
2018-04-26T09:11:07.059Z,16.50
2018-04-26T09:12:07.053Z,16.54
2018-04-26T09:13:07.045Z,16.60
2018-04-26T09:14:07.046Z,16.67
2018-04-26T09:15:07.032Z,16.75
2018-04-26T09:16:07.023Z,16.80
2018-04-26T09:17:07.016Z,16.82
2018-04-26T09:18:07.014Z,16.85
2018-04-26T09:19:07.006Z,16.90
2018-04-26T09:20:06.997Z,16.99
2018-04-26T09:21:06.993Z,17.03
2018-04-26T09:22:06.984Z,17.00
2018-04-26T09:23:06.976Z,16.78
2018-04-26T09:24:06.971Z,16.54
2018-04-26T09:25:06.965Z,16.50
2018-04-26T09:26:06.960Z,16.25
2018-04-26T09:27:06.951Z,16.25
2018-04-26T09:28:06.946Z,16.25
2018-04-26T09:29:06.937Z,16.25
2018-04-26T09:30:07.020Z,16.42
2018-04-26T09:31:06.924Z,16.54
2018-04-26T09:32:06.920Z,16.51
2018-04-26T09:33:06.909Z,16.48
2018-04-26T09:34:06.905Z,16.47
2018-04-26T09:35:06.897Z,16.48
2018-04-26T09:36:06.892Z,16.57
2018-04-26T09:37:06.885Z,16.51
2018-04-26T09:38:06.881Z,16.47
2018-04-26T09:39:06.872Z,16.41
2018-04-26T09:40:06.872Z,16.51
2018-04-26T09:41:06.859Z,16.42
2018-04-26T09:42:06.851Z,16.40
2018-04-26T09:43:06.845Z,16.25
2018-04-26T09:44:06.838Z,16.22
2018-04-26T09:45:06.830Z,16.23
2018-04-26T09:46:06.824Z,16.26
2018-04-26T09:47:06.816Z,16.26
2018-04-26T09:48:06.809Z,16.18
2018-04-26T09:49:06.804Z,16.08
2018-04-26T09:50:06.797Z,15.98
2018-04-26T09:51:06.790Z,15.95
2018-04-26T09:52:06.783Z,15.86
2018-04-26T09:53:06.778Z,15.71
2018-04-26T09:54:06.769Z,15.66
2018-04-26T09:55:06.764Z,15.64
2018-04-26T09:56:06.759Z,15.76
2018-04-26T09:57:06.751Z,15.73
2018-04-26T09:58:06.747Z,15.73
2018-04-26T09:59:06.737Z,15.74
2018-04-26T10:00:06.732Z,15.67
2018-04-26T10:01:06.725Z,15.66
2018-04-26T10:02:06.716Z,15.67
2018-04-26T10:03:06.708Z,15.64
2018-04-26T10:04:06.701Z,15.59
2018-04-26T10:05:06.694Z,15.52
2018-04-26T10:06:06.694Z,15.66
2018-04-26T10:07:06.679Z,15.66
2018-04-26T10:08:06.674Z,15.73
2018-04-26T10:09:06.666Z,15.68
2018-04-26T10:10:06.661Z,15.73
2018-04-26T10:11:06.650Z,15.71
2018-04-26T10:12:06.645Z,15.74
2018-04-26T10:13:06.638Z,15.77
2018-04-26T10:14:06.629Z,15.77
2018-04-26T10:15:06.657Z,15.80
2018-04-26T10:16:06.613Z,15.89
2018-04-26T10:17:06.607Z,16.04
2018-04-26T10:18:06.602Z,16.11
2018-04-26T10:19:06.592Z,15.96
2018-04-26T10:20:06.584Z,16.03
2018-04-26T10:21:06.632Z,16.07
2018-04-26T10:22:06.574Z,16.01
2018-04-26T10:23:06.564Z,15.96
2018-04-26T10:24:06.559Z,15.93
2018-04-26T10:25:06.550Z,15.98
2018-04-26T10:26:06.543Z,15.58
2018-04-26T10:27:06.538Z,15.52
2018-04-26T10:28:06.528Z,15.60
2018-04-26T10:29:06.523Z,15.58
2018-04-26T10:30:06.526Z,15.55
2018-04-26T10:31:06.507Z,15.62
2018-04-26T10:32:06.498Z,15.67
2018-04-26T10:33:06.494Z,15.60
2018-04-26T10:34:06.487Z,15.60
2018-04-26T10:35:06.479Z,15.67
2018-04-26T10:36:06.475Z,15.55
2018-04-26T10:37:06.465Z,15.67
2018-04-26T10:38:06.458Z,15.67
2018-04-26T10:39:06.449Z,15.80
2018-04-26T10:40:06.446Z,15.84
2018-04-26T10:41:06.435Z,15.73
2018-04-26T10:42:06.428Z,15.74
2018-04-26T10:43:06.420Z,15.77
2018-04-26T10:44:06.412Z,15.93
2018-04-26T10:45:06.407Z,15.81
2018-04-26T10:46:06.400Z,15.66
2018-04-26T10:47:06.395Z,15.70
2018-04-26T10:48:06.384Z,15.84
2018-04-26T10:49:06.376Z,15.95
2018-04-26T10:50:06.370Z,16.10
2018-04-26T10:51:06.364Z,16.26
2018-04-26T10:52:06.357Z,16.36
2018-04-26T10:53:06.395Z,16.48
2018-04-26T10:54:06.343Z,16.48
2018-04-26T10:55:06.335Z,16.54
2018-04-26T10:56:06.327Z,16.67
2018-04-26T10:57:06.321Z,16.70
2018-04-26T10:58:06.314Z,16.75
2018-04-26T10:59:06.308Z,16.66
2018-04-26T11:00:06.382Z,16.70
2018-04-26T11:01:06.296Z,16.80
2018-04-26T11:02:06.286Z,16.90
2018-04-26T11:03:06.281Z,16.95
2018-04-26T11:04:06.273Z,17.12
2018-04-26T11:05:06.267Z,17.27
2018-04-26T11:06:06.261Z,17.30
2018-04-26T11:07:06.253Z,17.28
2018-04-26T11:08:06.247Z,17.39
2018-04-26T11:09:06.264Z,17.49
2018-04-26T11:10:06.236Z,17.32
2018-04-26T11:11:06.231Z,17.35
2018-04-26T11:12:06.227Z,17.27
2018-04-26T11:13:06.216Z,17.18
2018-04-26T11:14:06.213Z,17.22
2018-04-26T11:15:06.211Z,17.36
2018-04-26T11:16:06.201Z,17.47
2018-04-26T11:17:06.218Z,17.53
2018-04-26T11:18:06.187Z,17.60
2018-04-26T11:19:06.184Z,17.54
2018-04-26T11:20:06.175Z,17.63
2018-04-26T11:21:06.171Z,17.68
2018-04-26T11:22:06.166Z,17.73
2018-04-26T11:23:06.159Z,17.73
2018-04-26T11:24:06.152Z,17.65
2018-04-26T11:25:06.145Z,17.55
2018-04-26T11:26:06.138Z,17.42
2018-04-26T11:27:06.134Z,17.02
2018-04-26T11:28:06.129Z,16.99
2018-04-26T11:29:06.121Z,16.98
2018-04-26T11:30:06.120Z,17.05
2018-04-26T11:31:06.199Z,17.09
2018-04-26T11:32:06.103Z,17.02
2018-04-26T11:33:06.101Z,17.17
2018-04-26T11:34:06.096Z,17.32
2018-04-26T11:35:06.087Z,17.28
2018-04-26T11:36:06.112Z,17.32
2018-04-26T11:37:06.077Z,17.49
2018-04-26T11:38:06.072Z,17.49
2018-04-26T11:39:06.064Z,17.62
2018-04-26T11:40:06.139Z,17.73
2018-04-26T11:41:06.052Z,17.65
2018-04-26T11:42:06.048Z,17.76
2018-04-26T11:43:06.040Z,17.86
2018-04-26T11:44:06.035Z,17.94
2018-04-26T11:45:06.027Z,17.96
2018-04-26T11:46:06.021Z,18.17
2018-04-26T11:47:06.016Z,18.35
2018-04-26T11:48:06.010Z,18.59
2018-04-26T11:49:06.011Z,18.90
2018-04-26T11:50:06.004Z,18.97
2018-04-26T11:51:05.996Z,18.93
2018-04-26T11:52:05.989Z,18.75
2018-04-26T11:53:05.984Z,18.36
2018-04-26T11:54:05.978Z,18.38
2018-04-26T11:55:05.976Z,18.47
2018-04-26T11:56:05.964Z,18.53
2018-04-26T11:57:05.960Z,18.54
2018-04-26T11:58:05.958Z,18.47
2018-04-26T11:59:05.949Z,18.23
2018-04-26T12:00:05.947Z,18.34
2018-04-26T12:01:05.946Z,18.38
2018-04-26T12:02:05.938Z,18.44
2018-04-26T12:03:05.932Z,18.49
2018-04-26T12:04:05.931Z,18.47
2018-04-26T12:05:05.924Z,18.44
2018-04-26T12:06:05.919Z,18.53
2018-04-26T12:07:05.913Z,18.35
2018-04-26T12:08:05.908Z,17.99
2018-04-26T12:09:05.905Z,18.05
2018-04-26T12:10:05.897Z,17.95
2018-04-26T12:11:05.897Z,17.87
2018-04-26T12:12:05.887Z,17.87
2018-04-26T12:13:05.898Z,17.74
2018-04-26T12:14:05.882Z,17.42
2018-04-26T12:15:05.875Z,17.17
2018-04-26T12:16:05.867Z,17.27
2018-04-26T12:17:05.861Z,17.32
2018-04-26T12:18:05.857Z,16.98
2018-04-26T12:19:05.855Z,17.05
2018-04-26T12:20:05.847Z,17.12
2018-04-26T12:21:05.839Z,17.20
2018-04-26T12:22:05.836Z,17.24
2018-04-26T12:23:05.832Z,17.27
2018-04-26T12:24:05.841Z,17.09
2018-04-26T12:25:05.819Z,16.98
2018-04-26T12:26:05.817Z,17.06
2018-04-26T12:27:05.807Z,17.07
2018-04-26T12:28:05.802Z,17.18
2018-04-26T12:29:05.798Z,17.20
2018-04-26T12:30:05.795Z,17.25
2018-04-26T12:31:05.790Z,17.24
2018-04-26T12:32:05.781Z,17.38
2018-04-26T12:33:05.776Z,17.32
2018-04-26T12:34:05.769Z,17.35
2018-04-26T12:35:05.802Z,17.38
2018-04-26T12:36:05.758Z,17.36
2018-04-26T12:37:05.752Z,17.25
2018-04-26T12:38:05.747Z,17.12
2018-04-26T12:39:05.743Z,17.24
2018-04-26T12:40:05.735Z,17.40
2018-04-26T12:41:05.729Z,17.32
2018-04-26T12:42:05.733Z,17.43
2018-04-26T12:43:05.719Z,17.57
2018-04-26T12:44:05.715Z,17.60
2018-04-26T12:45:05.707Z,17.84
2018-04-26T12:46:05.700Z,17.73
2018-04-26T12:47:05.698Z,17.68
2018-04-26T12:48:05.694Z,17.33
2018-04-26T12:49:05.688Z,17.43
2018-04-26T12:50:05.678Z,17.42
2018-04-26T12:51:05.674Z,17.57
2018-04-26T12:52:05.665Z,17.54